KLRF/LRF METAR and TAF weather

Enter ICAO airport designator
Station Type Date Time Source
KLRF METAR 2021/09/16 10:56 UTC NOAA

KLRF 161056Z 00000KT 10SM CLR 20/19 A2993 RMK AO2A SLP135 T02010194


Station Type Date Time Source
KLRF Decoded METAR 2021/09/16 10:56 UTC NOAA

Little Rock Air Force Base, AR, United States (KLRF) 34-55N 092-09W
Sep 16, 2021 - 06:56 AM EDT / 2021.09.16 1056 UTC
Wind: Calm:0
Visibility: 10 mile(s):0
Sky conditions: clear
Temperature: 68.2 F (20.1 C)
Dew Point: 66.9 F (19.4 C)
Relative Humidity: 95%
Pressure (altimeter): 29.93 in. Hg (1013 hPa)
ob: KLRF 161056Z 00000KT 10SM CLR 20/19 A2993 RMK AO2A SLP135 T02010194
cycle: 11

Station Type Date Time Source
KLRF TAF 2021/09/16 07:06 UTC NOAA

TAF TAF KLRF 160700Z 1607/1713 VRB06KT 9999 SKC QNH2992INS
BECMG 1614/1615 06010G15KT 9999 SCT040 BKN060 QNH2990INS
BECMG 1623/1624 06009KT 9999 BKN110 QNH2985INS TX33/1621Z TN20/1612Z

Example: see airport list